| time (UTC) | temp F | wind direction | speed MPH | gust MPH | rain 1hr in | rain 24hr in | rain mn in | humidity % | barometer mb |
| 20260508141528 | 60 | 111 | 6.0 | 9.0 | 0.00 | 0.00 | 0.00 | 70 | 1018.7 |
| 20260508140031 | 61 | 134 | 1.0 | 4.0 | 0.00 | 0.00 | 0.00 | 74 | 1018.9 |
| 20260508134534 | 59 | 129 | 3.0 | 6.0 | 0.00 | 0.02 | 0.00 | 73 | 1019.2 |
| 20260508133029 | 58 | 126 | 1.0 | 4.0 | 0.00 | 0.02 | 0.00 | 78 | 1019.1 |
| 20260508131526 | 57 | 123 | 0.0 | 3.0 | 0.00 | 0.02 | 0.00 | 83 | 1019.2 |
| 20260508130025 | 55 | 123 | 0.0 | 3.0 | 0.00 | 0.02 | 0.00 | 86 | 1018.9 |
| 20260508124525 | 55 | 0 | 1.0 | 5.0 | 0.00 | 0.12 | 0.00 | 88 | 1018.8 |
| 20260508123033 | 54 | 69 | 3.0 | 5.0 | 0.00 | 0.12 | 0.00 | 88 | 1018.5 |
| 20260508121528 | 53 | 0 | 0.0 | 4.0 | 0.00 | 0.12 | 0.00 | 88 | 1018.2 |
| 20260508120028 | 52 | 65 | 3.0 | 8.0 | 0.00 | 0.12 | 0.00 | 89 | 1018.0 |
| 20260508114527 | 51 | 82 | 5.0 | 9.0 | 0.00 | 0.24 | 0.00 | 89 | 1017.9 |
| 20260508113026 | 51 | 52 | 6.0 | 10.0 | 0.00 | 0.24 | 0.00 | 88 | 1017.5 |
| 20260508111526 | 51 | 58 | 6.0 | 10.0 | 0.00 | 0.24 | 0.00 | 87 | 1017.3 |
| 20260508110031 | 51 | 56 | 8.0 | 11.0 | 0.00 | 0.24 | 0.00 | 86 | 1016.8 |
| 20260508104528 | 52 | 61 | 7.0 | 12.0 | 0.00 | 0.33 | 0.00 | 85 | 1016.6 |
| 20260508103032 | 51 | 58 | 7.0 | 10.0 | 0.00 | 0.33 | 0.00 | 86 | 1016.4 |
| 20260508101535 | 52 | 58 | 6.0 | 12.0 | 0.00 | 0.33 | 0.00 | 84 | 1016.2 |
| 20260508100027 | 52 | 63 | 6.0 | 10.0 | 0.00 | 0.33 | 0.00 | 85 | 1015.9 |
| 20260508094529 | 53 | 60 | 6.0 | 9.0 | 0.00 | 0.37 | 0.00 | 84 | 1015.7 |
| 20260508093042 | 52 | 63 | 6.0 | 10.0 | 0.00 | 0.37 | 0.00 | 84 | 1015.7 |
| 20260508091526 | 51 | 66 | 4.0 | 10.0 | 0.00 | 0.37 | 0.00 | 86 | 1015.7 |
| 20260508090041 | 52 | 58 | 5.0 | 9.0 | 0.00 | 0.37 | 0.00 | 85 | 1015.5 |
| 20260508084528 | 53 | 42 | 8.0 | 10.0 | 0.00 | 0.43 | 0.00 | 80 | 1015.3 |
| 20260508083031 | 54 | 21 | 8.0 | 9.0 | 0.00 | 0.43 | 0.00 | 79 | 1015.2 |
| 20260508081527 | 53 | 5 | 6.0 | 9.0 | 0.00 | 0.43 | 0.00 | 81 | 1015.1 |
| 20260508080035 | 53 | 331 | 6.0 | 9.0 | 0.00 | 0.43 | 0.00 | 81 | 1015.2 |
| 20260508074535 | 54 | 330 | 5.0 | 8.0 | 0.00 | 0.63 | 0.00 | 81 | 1015.3 |
| 20260508073026 | 54 | 308 | 5.0 | 10.0 | 0.00 | 0.63 | 0.00 | 80 | 1015.3 |
| 20260508071528 | 54 | 317 | 6.0 | 10.0 | 0.00 | 0.63 | 0.00 | 80 | 1015.3 |
| 20260508070029 | 55 | 326 | 6.0 | 9.0 | 0.00 | 0.63 | 0.00 | 80 | 1015.3 |
| 20260508064526 | 55 | 322 | 7.0 | 10.0 | 0.00 | 0.71 | 0.00 | 80 | 1015.2 |
| 20260508063027 | 55 | 296 | 7.0 | 10.0 | 0.00 | 0.71 | 0.00 | 80 | 1015.1 |
| 20260508061529 | 56 | 310 | 6.0 | 9.0 | 0.00 | 0.71 | 0.00 | 81 | 1015.1 |
| 20260508060029 | 56 | 318 | 5.0 | 9.0 | 0.00 | 0.71 | 0.00 | 80 | 1015.2 |
| 20260508054527 | 56 | 309 | 6.0 | 8.0 | 0.00 | 0.95 | 0.00 | 80 | 1015.2 |
| 20260508053026 | 56 | 285 | 6.0 | 8.0 | 0.00 | 0.95 | 0.00 | 81 | 1015.3 |
| 20260508051527 | 56 | 293 | 5.0 | 8.0 | 0.00 | 0.95 | 0.00 | 82 | 1015.3 |
| 20260508050029 | 57 | 288 | 5.0 | 7.0 | 0.00 | 0.95 | 0.00 | 81 | 1015.3 |
| 20260508044530 | 57 | 309 | 4.0 | 8.0 | 0.00 | 1.16 | 0.00 | 80 | 1015.2 |
| 20260508043026 | 57 | 284 | 5.0 | 7.0 | 0.00 | 1.16 | 0.00 | 79 | 1015.0 |
| 20260508041534 | 57 | 294 | 4.0 | 7.0 | 0.00 | 1.16 | 0.00 | 80 | 1015.0 |
| 20260508040030 | 57 | 292 | 4.0 | 7.0 | 0.00 | 1.16 | 0.00 | 80 | 1014.8 |
| 20260508034528 | 58 | 298 | 4.0 | 7.0 | 0.00 | 1.17 | 1.16 | 79 | 1014.9 |
| 20260508033035 | 58 | 286 | 4.0 | 7.0 | 0.00 | 1.17 | 1.16 | 78 | 1014.7 |
| 20260508031526 | 59 | 282 | 5.0 | 8.0 | 0.00 | 1.17 | 1.16 | 76 | 1014.9 |
| 20260508030037 | 59 | 294 | 5.0 | 8.0 | 0.00 | 1.17 | 1.16 | 76 | 1014.7 |
| 20260508024528 | 60 | 309 | 5.0 | 8.0 | 0.00 | 1.17 | 1.16 | 75 | 1014.7 |
| 20260508023039 | 60 | 300 | 5.0 | 8.0 | 0.00 | 1.17 | 1.16 | 74 | 1014.4 |
| 20260508021533 | 60 | 313 | 4.0 | 10.0 | 0.00 | 1.17 | 1.16 | 74 | 1014.1 |
| 20260508020028 | 61 | 313 | 7.0 | 12.0 | 0.00 | 1.17 | 1.16 | 73 | 1014.1 |
| 20260508014533 | 61 | 320 | 7.0 | 11.0 | 0.00 | 1.25 | 1.16 | 72 | 1013.9 |
| 20260508013027 | 62 | 311 | 6.0 | 12.0 | 0.00 | 1.25 | 1.16 | 70 | 1013.7 |
| 20260508011527 | 62 | 327 | 6.0 | 10.0 | 0.00 | 1.25 | 1.16 | 70 | 1013.4 |
| 20260508010039 | 63 | 323 | 7.0 | 15.0 | 0.00 | 1.25 | 1.16 | 69 | 1013.2 |
| 20260508004531 | 63 | 355 | 9.0 | 14.0 | 0.00 | 2.32 | 1.16 | 69 | 1012.9 |
| 20260508003029 | 64 | 329 | 10.0 | 15.0 | 0.00 | 2.32 | 1.16 | 68 | 1012.7 |
| 20260508001534 | 64 | 318 | 7.0 | 14.0 | 0.00 | 2.32 | 1.16 | 68 | 1012.7 |
| 20260508000031 | 65 | 313 | 12.0 | 19.0 | 0.00 | 2.32 | 1.16 | 66 | 1012.1 |
| 20260507234534 | 66 | 300 | 9.0 | 19.0 | 0.00 | 2.33 | 1.16 | 65 | 1011.8 |
| 20260507233028 | 67 | 306 | 11.0 | 22.0 | 0.00 | 2.33 | 1.16 | 64 | 1011.8 |
| 20260507231527 | 68 | 311 | 11.0 | 19.0 | 0.00 | 2.33 | 1.16 | 63 | 1011.6 |
| 20260507230030 | 69 | 355 | 7.0 | 18.0 | 0.00 | 2.33 | 1.16 | 64 | 1011.4 |
| 20260507224547 | 70 | 284 | 16.0 | 24.0 | 0.00 | 2.33 | 1.16 | 62 | 1011.0 |
| 20260507223029 | 71 | 303 | 14.0 | 23.0 | 0.00 | 2.33 | 1.16 | 61 | 1010.9 |
| 20260507221535 | 72 | 297 | 16.0 | 24.0 | 0.00 | 2.33 | 1.16 | 62 | 1010.6 |
| 20260507220032 | 72 | 275 | 12.0 | 25.0 | 0.00 | 2.33 | 1.16 | 63 | 1010.5 |
| 20260507214534 | 72 | 301 | 14.0 | 23.0 | 0.00 | 2.33 | 1.16 | 63 | 1010.1 |
| 20260507213035 | 72 | 272 | 16.0 | 26.0 | 0.00 | 2.33 | 1.16 | 63 | 1010.3 |
| 20260507211527 | 73 | 304 | 13.0 | 22.0 | 0.00 | 2.33 | 1.16 | 65 | 1010.1 |
| 20260507210049 | 73 | 290 | 12.0 | 24.0 | 0.00 | 2.33 | 1.16 | 66 | 1010.1 |
| 20260507204528 | 73 | 278 | 12.0 | 23.0 | 0.00 | 2.33 | 1.16 | 66 | 1009.9 |
| 20260507203028 | 73 | 275 | 16.0 | 26.0 | 0.00 | 2.33 | 1.16 | 64 | 1010.1 |
| 20260507201535 | 74 | 263 | 13.0 | 24.0 | 0.00 | 2.33 | 1.16 | 64 | 1009.7 |
| 20260507200047 | 74 | 281 | 10.0 | 24.0 | 0.00 | 2.33 | 1.16 | 65 | 1009.9 |
| 20260507194526 | 74 | 264 | 14.0 | 24.0 | 0.00 | 2.33 | 1.16 | 64 | 1009.9 |
| 20260507193059 | 74 | 284 | 17.0 | 25.0 | 0.00 | 2.33 | 1.16 | 66 | 1010.2 |
| 20260507191530 | 74 | 327 | 8.0 | 16.0 | 0.00 | 2.33 | 1.16 | 70 | 1010.3 |
| 20260507190033 | 73 | 285 | 9.0 | 17.0 | 0.00 | 2.33 | 1.16 | 71 | 1010.4 |
| 20260507184529 | 72 | 324 | 8.0 | 17.0 | 0.00 | 2.33 | 1.16 | 73 | 1010.7 |
| 20260507183037 | 73 | 302 | 11.0 | 20.0 | 0.00 | 2.33 | 1.16 | 72 | 1010.7 |
| 20260507181528 | 72 | 267 | 10.0 | 18.0 | 0.00 | 2.33 | 1.16 | 75 | 1010.7 |
| 20260507180028 | 72 | 274 | 12.0 | 20.0 | 0.00 | 2.33 | 1.16 | 74 | 1010.8 |
| 20260507174528 | 72 | 281 | 9.0 | 14.0 | 0.00 | 2.33 | 1.16 | 77 | 1010.7 |
| 20260507173027 | 71 | 273 | 10.0 | 14.0 | 0.00 | 2.33 | 1.16 | 78 | 1010.7 |
| 20260507171526 | 71 | 302 | 6.0 | 15.0 | 0.00 | 2.33 | 1.16 | 81 | 1010.6 |
| 20260507170028 | 70 | 321 | 6.0 | 14.0 | 0.00 | 2.33 | 1.16 | 84 | 1010.7 |
| 20260507164526 | 69 | 340 | 8.0 | 13.0 | 0.00 | 2.35 | 1.16 | 86 | 1010.6 |
| 20260507163030 | 68 | 298 | 4.0 | 10.0 | 0.00 | 2.35 | 1.16 | 88 | 1010.9 |
| 20260507161530 | 67 | 229 | 4.0 | 10.0 | 0.00 | 2.35 | 1.16 | 91 | 1010.9 |
| 20260507160053 | 67 | 239 | 6.0 | 10.0 | 0.00 | 2.35 | 1.16 | 94 | 1011.4 |
| 20260507154528 | 66 | 259 | 6.0 | 11.0 | 0.00 | 2.35 | 1.16 | 96 | 1011.3 |
| 20260507153027 | 65 | 244 | 2.0 | 10.0 | 0.00 | 2.35 | 1.16 | 98 | 1011.2 |
| 20260507151530 | 64 | 259 | 3.0 | 10.0 | 0.00 | 2.35 | 1.16 | 98 | 1011.3 |
| 20260507150027 | 64 | 281 | 5.0 | 11.0 | 0.00 | 2.35 | 1.16 | 98 | 1011.5 |
| 20260507144541 | 63 | 270 | 5.0 | 12.0 | 0.00 | 2.35 | 1.16 | 98 | 1012.0 |
| 20260507143032 | 63 | 259 | 5.0 | 10.0 | 0.00 | 2.35 | 1.16 | 98 | 1011.8 |